Time;durP1;ratioP1;P1;durP2;ratioP2;P2;SDS_P1;SDS_P2;PMS_P1;PMS_P2;Temp;Humidity;BMP_temperature;BMP_pressure;BME280_temperature;BME280_humidity;BME280_pressure;Samples;Min_cycle;Max_cycle;Signal;HPM_P1;HPM_P2
2021/04/06 13:24:24;;;;;;;;;;;22.70;99.90;;;22.23;54.17;100392.16;5097289;28;19969;-64
2021/04/06 13:26:51;;;;;;;;;;;22.80;99.90;;;22.22;55.68;100387.84;5113406;28;19977;-64
2021/04/06 13:29:19;;;;;;;;;;;22.70;99.90;;;22.19;52.52;100378.34;5114197;28;19924;-65
2021/04/06 13:31:46;;;;;;;;;;;22.70;99.90;;;22.04;52.14;100373.09;5113362;28;19924;-64
2021/04/06 13:34:14;;;;;;;;;;;22.50;99.90;;;22.10;52.48;100379.84;5113762;28;20400;-63
2021/04/06 13:36:41;;;;;;;;;;;22.50;99.90;;;22.19;50.89;100383.09;5113238;28;20373;-65
2021/04/06 13:39:11;;;;;;;;;;;22.60;99.90;;;22.09;50.14;100373.53;5114004;28;19923;-64
2021/04/06 13:41:40;;;;;;;;;;;22.50;99.90;;;22.11;50.45;100365.69;5113381;28;19924;-64
2021/04/06 13:44:08;;;;;;;;;;;22.60;99.90;;;22.31;49.38;100367.06;5113295;28;19924;-64
2021/04/06 13:46:35;;;;;;;;;;;22.80;99.90;;;22.57;49.63;100368.88;5113055;28;19980;-64
2021/04/06 13:49:03;;;;;;;;;;;23.00;99.90;;;22.72;45.48;100356.81;5113639;28;19931;-64
2021/04/06 13:51:30;;;;;;;;;;;23.20;99.90;;;22.69;47.00;100365.06;5113212;28;19930;-64
2021/04/06 13:53:58;;;;;;;;;;;23.20;99.90;;;22.63;46.71;100359.06;5112703;28;19932;-64
2021/04/06 13:56:25;;;;;;;;;;;23.20;99.90;;;22.56;45.02;100367.28;5112959;28;19928;-64
2021/04/06 13:58:53;;;;;;;;;;;23.10;99.90;;;22.63;46.68;100361.03;5113465;28;20321;-63
2021/04/06 14:01:20;;;;;;;;;;;23.10;99.90;;;22.88;47.71;100353.78;5113612;28;19946;-64
2021/04/06 14:03:48;;;;;;;;;;;23.40;99.90;;;22.92;44.91;100356.56;5112798;28;19924;-64
2021/04/06 14:06:18;;;;;;;;;;;23.40;99.90;;;22.88;47.90;100353.78;5111735;28;19924;-64
2021/04/06 14:08:45;;;;;;;;;;;23.30;99.90;;;22.76;46.88;100346.63;5113390;28;19924;-64
2021/04/06 14:11:12;;;;;;;;;;;23.30;99.90;;;22.78;44.93;100348.97;5113255;28;19931;-64
2021/04/06 14:13:39;;;;;;;;;;;23.30;99.90;;;22.64;45.28;100343.34;5112703;28;19980;-64
2021/04/06 14:16:08;;;;;;;;;;;23.20;99.90;;;22.56;45.03;100342.47;5112377;28;19927;-64
2021/04/06 14:18:35;;;;;;;;;;;23.10;99.90;;;22.41;43.85;100340.78;5112748;28;19924;-64
2021/04/06 14:21:03;;;;;;;;;;;23.00;99.90;;;22.41;44.96;100339.97;5113277;28;19928;-64
2021/04/06 14:23:30;;;;;;;;;;;23.00;99.90;;;22.41;44.81;100340.78;5112520;28;20330;-64
2021/04/06 14:26:00;;;;;;;;;;;22.90;99.90;;;22.22;45.97;100333.53;5112300;28;19928;-64
2021/04/06 14:28:29;;;;;;;;;;;22.80;99.90;;;22.17;48.37;100338.59;5113006;28;19927;-64
2021/04/06 14:30:58;;;;;;;;;;;22.70;99.90;;;22.31;48.56;100322.22;5113134;28;20077;-64
2021/04/06 14:33:26;;;;;;;;;;;22.80;99.90;;;22.34;49.77;100324.22;5112512;28;19928;-63
2021/04/06 14:35:54;;;;;;;;;;;22.80;99.90;;;22.33;48.84;100322.63;5112373;28;20385;-64
2021/04/06 14:38:25;;;;;;;;;;;22.90;99.90;;;22.23;48.48;100324.09;5112650;28;19984;-64
2021/04/06 14:40:52;;;;;;;;;;;22.80;99.90;;;22.28;47.10;100314.72;5113030;28;19931;-63
2021/04/06 14:43:22;;;;;;;;;;;22.80;99.90;;;22.13;48.25;100313.00;5112342;28;19928;-64
2021/04/06 14:45:52;;;;;;;;;;;22.80;99.90;;;22.00;48.46;100314.44;5112023;28;19977;-62
2021/04/06 14:48:19;;;;;;;;;;;22.70;99.90;;;21.79;48.14;100310.25;5112550;28;20388;-63
2021/04/06 14:50:47;;;;;;;;;;;22.20;99.90;;;21.17;50.86;100308.34;5112946;28;20281;-64
2021/04/06 14:53:16;;;;;;;;;;;22.00;99.90;;;20.76;53.56;100317.56;5112058;28;19932;-64
2021/04/06 14:55:46;;;;;;;;;;;21.50;99.90;;;20.48;55.78;100315.97;5112097;28;19954;-64
2021/04/06 14:58:14;;;;;;;;;;;21.20;99.90;;;20.36;55.59;100315.34;5112503;28;20042;-64
2021/04/06 15:00:42;;;;;;;;;;;21.00;99.90;;;20.67;55.76;100307.59;5112859;28;19928;-64
2021/04/06 15:03:09;;;;;;;;;;;21.20;99.90;;;21.18;52.71;100307.19;5112094;28;19931;-62
2021/04/06 15:05:36;;;;;;;;;;;21.60;99.90;;;21.77;51.84;100307.09;5111875;28;20396;-64
2021/04/06 15:08:06;;;;;;;;;;;22.10;99.90;;;22.32;50.73;100302.53;5112290;28;20262;-64
2021/04/06 15:10:33;;;;;;;;;;;22.80;99.90;;;22.60;50.76;100298.41;5112698;28;19947;-64
2021/04/06 15:13:01;;;;;;;;;;;23.10;99.90;;;22.80;50.87;100297.78;5092539;28;19927;-64
2021/04/06 15:15:28;;;;;;;;;;;23.30;99.90;;;23.00;49.44;100311.31;5091365;28;20411;-62
2021/04/06 15:17:55;;;;;;;;;;;23.50;99.90;;;22.97;50.10;100298.28;5095452;28;19924;-62
2021/04/06 15:20:22;;;;;;;;;;;23.50;99.90;;;23.07;50.61;100295.56;5096066;28;19924;-64
2021/04/06 15:22:50;;;;;;;;;;;23.70;99.90;;;22.99;49.66;100287.66;5095837;28;19924;-64
2021/04/06 15:25:22;;;;;;;;;;;23.60;99.90;;;23.09;51.10;100289.69;5095300;28;19931;-64
2021/04/06 15:27:51;;;;;;;;;;;23.70;99.90;;;23.14;50.94;100278.28;5095786;28;19954;-65
2021/04/06 15:30:21;;;;;;;;;;;23.80;99.90;;;23.24;51.41;100280.31;5096050;28;19924;-64
2021/04/06 15:32:52;;;;;;;;;;;23.90;99.90;;;23.23;51.03;100279.50;5095316;28;19924;-64
2021/04/06 15:35:20;;;;;;;;;;;23.90;99.90;;;23.26;53.09;100273.22;5105305;28;19980;-64
2021/04/06 15:37:48;;;;;;;;;;;24.00;99.90;;;23.28;52.75;100278.34;5116005;28;19923;-64
2021/04/06 15:40:18;;;;;;;;;;;24.00;99.90;;;23.21;53.64;100279.13;5116331;28;19955;-65
2021/04/06 15:42:47;;;;;;;;;;;24.00;99.90;;;23.30;56.40;100282.31;5115826;28;19939;-64
2021/04/06 15:45:16;;;;;;;;;;;24.00;99.90;;;23.24;55.74;100280.31;5115220;28;19928;-64
2021/04/06 15:47:43;;;;;;;;;;;24.00;99.90;;;22.92;54.38;100271.09;5115615;28;20328;-63
2021/04/06 15:50:15;;;;;;;;;;;23.70;99.90;;;22.60;55.76;100282.69;5116072;28;19924;-63
2021/04/06 15:52:42;;;;;;;;;;;23.50;99.90;;;22.34;57.92;100277.38;5115522;28;19931;-64
2021/04/06 15:55:11;;;;;;;;;;;23.20;99.90;;;22.25;60.14;100279.66;5114929;28;20318;-64
2021/04/06 15:57:41;;;;;;;;;;;22.90;99.90;;;22.15;60.87;100283.13;5115562;28;19927;-64
2021/04/06 16:00:10;;;;;;;;;;;22.80;99.90;;;21.84;61.60;100289.88;5116252;28;20013;-64
2021/04/06 16:02:37;;;;;;;;;;;22.60;99.90;;;21.91;61.79;100292.72;5115393;28;20377;-64
2021/04/06 16:05:06;;;;;;;;;;;22.40;99.90;;;21.64;62.37;100294.75;5114879;28;19924;-64
2021/04/06 16:07:35;;;;;;;;;;;22.30;99.90;;;21.47;63.74;100302.81;5115358;28;19931;-64
2021/04/06 16:10:03;;;;;;;;;;;22.10;99.90;;;21.57;61.50;100291.94;5115569;28;19927;-64
2021/04/06 16:12:31;;;;;;;;;;;22.20;99.90;;;21.72;62.39;100288.19;5115395;28;19980;-64
2021/04/06 16:14:59;;;;;;;;;;;22.50;99.90;;;21.41;62.01;100296.88;5114803;28;20382;-64
2021/04/06 16:17:26;;;;;;;;;;;22.10;99.90;;;20.59;64.30;100291.38;5114862;28;19924;-64
2021/04/06 16:19:58;;;;;;;;;;;21.40;99.90;;;20.02;65.22;100295.13;5115736;28;19928;-64
2021/04/06 16:22:26;;;;;;;;;;;20.80;99.90;;;19.74;67.72;100289.91;5114938;28;20346;-64
2021/04/06 16:24:54;;;;;;;;;;;20.50;99.90;;;19.67;68.45;100284.28;5114452;28;19938;-64
2021/04/06 16:27:21;;;;;;;;;;;20.30;99.90;;;19.99;68.71;100280.19;5114336;28;19930;-64
2021/04/06 16:29:49;;;;;;;;;;;20.50;99.90;;;20.62;68.69;100279.66;5115025;28;19931;-64
2021/04/06 16:32:18;;;;;;;;;;;21.10;99.90;;;21.15;67.22;100273.00;5115185;28;19924;-64
2021/04/06 16:34:46;;;;;;;;;;;21.60;99.90;;;21.64;64.02;100263.72;5114532;28;19924;-64
2021/04/06 16:37:13;;;;;;;;;;;22.10;99.90;;;21.97;61.08;100268.41;5114259;28;19928;-64
2021/04/06 16:39:41;;;;;;;;;;;22.40;99.90;;;22.20;58.60;100260.72;5115158;28;20446;-64
2021/04/06 16:42:09;;;;;;;;;;;22.70;99.90;;;22.26;58.50;100262.75;5114841;28;19924;-64
2021/04/06 16:44:37;;;;;;;;;;;22.80;99.90;;;22.37;57.69;100265.59;5097377;28;19969;-64
2021/04/06 16:47:05;;;;;;;;;;;22.90;99.90;;;22.33;57.66;100262.03;5094070;28;20424;-64
2021/04/06 16:49:33;;;;;;;;;;;22.80;99.90;;;22.35;57.69;100267.94;5094390;28;19928;-64
2021/04/06 16:52:01;;;;;;;;;;;22.80;99.90;;;22.20;57.37;100271.75;5094086;28;19935;-65
2021/04/06 16:54:28;;;;;;;;;;;22.80;99.90;;;22.19;58.19;100273.69;5094213;28;19938;-64
2021/04/06 16:56:56;;;;;;;;;;;22.80;99.90;;;22.08;57.70;100278.34;5094204;28;19924;-64
2021/04/06 16:59:23;;;;;;;;;;;22.80;99.90;;;21.59;58.83;100277.81;5094406;28;19931;-64
2021/04/06 17:01:50;;;;;;;;;;;22.40;99.90;;;20.94;60.45;100278.19;5093928;28;19993;-64
2021/04/06 17:04:18;;;;;;;;;;;21.80;99.90;;;20.45;62.25;100278.25;5093810;28;19924;-64
2021/04/06 17:06:46;;;;;;;;;;;21.30;99.90;;;20.02;63.32;100290.44;5093968;28;20343;-64
2021/04/06 17:09:13;;;;;;;;;;;20.80;99.90;;;19.67;65.15;100289.00;5094042;28;19924;-64
2021/04/06 17:11:41;;;;;;;;;;;20.40;99.90;;;19.58;66.23;100284.53;5093993;28;20319;-64
2021/04/06 17:14:08;;;;;;;;;;;20.20;99.90;;;19.58;66.85;100290.00;5093699;28;19981;-64
2021/04/06 17:16:36;;;;;;;;;;;20.10;99.90;;;19.54;67.54;100280.94;5093827;28;19928;-64
2021/04/06 17:19:03;;;;;;;;;;;20.10;99.90;;;19.69;67.47;100282.00;5093807;28;19924;-64
2021/04/06 17:21:30;;;;;;;;;;;20.20;99.90;;;19.83;67.10;100285.00;5093478;28;19924;-63
2021/04/06 17:23:59;;;;;;;;;;;20.30;99.90;;;19.97;66.46;100279.75;5093312;28;19928;-64
2021/04/06 17:26:27;;;;;;;;;;;20.50;99.90;;;19.96;64.95;100280.13;5093655;28;20385;-63
2021/04/06 17:28:54;;;;;;;;;;;20.50;99.90;;;19.97;66.13;100282.50;5093789;28;19928;-64
2021/04/06 17:31:23;;;;;;;;;;;20.50;99.90;;;19.94;65.03;100276.97;5093529;28;20293;-64
2021/04/06 17:33:50;;;;;;;;;;;20.50;99.90;;;19.75;65.17;100279.75;5092785;28;19924;-63
2021/04/06 17:36:18;;;;;;;;;;;20.30;99.90;;;19.60;63.67;100276.75;5093506;28;19947;-64
2021/04/06 17:38:45;;;;;;;;;;;20.10;99.90;;;19.49;67.02;100283.97;5093404;28;19977;-64
2021/04/06 17:41:14;;;;;;;;;;;20.00;99.90;;;19.34;67.70;100276.56;5093413;28;19924;-64
2021/04/06 17:43:44;;;;;;;;;;;19.90;99.90;;;19.12;67.81;100269.06;5092493;28;19946;-64
2021/04/06 17:46:13;;;;;;;;;;;19.70;99.90;;;18.95;68.03;100283.19;5093211;28;20317;-64
2021/04/06 17:48:41;;;;;;;;;;;19.50;99.90;;;18.75;68.57;100276.09;5093190;28;20412;-64
2021/04/06 17:51:09;;;;;;;;;;;19.30;99.90;;;18.62;70.34;100278.16;5093450;28;19935;-64
2021/04/06 17:53:37;;;;;;;;;;;19.20;99.90;;;18.60;71.57;100274.19;5092367;28;19924;-64
2021/04/06 17:56:05;;;;;;;;;;;19.10;99.90;;;18.58;72.70;100268.25;5093121;28;19935;-64
2021/04/06 17:58:34;;;;;;;;;;;19.10;99.90;;;18.56;73.06;100271.38;5093172;28;20365;-63
2021/04/06 18:01:02;;;;;;;;;;;19.10;99.90;;;18.51;74.46;100271.66;5093264;28;19928;-64
2021/04/06 18:03:29;;;;;;;;;;;19.10;99.90;;;18.48;74.93;100275.06;5092508;28;20278;-64
2021/04/06 18:05:56;;;;;;;;;;;19.00;99.90;;;18.40;75.44;100270.56;5093012;28;19931;-64
2021/04/06 18:08:25;;;;;;;;;;;19.00;99.90;;;18.36;76.23;100277.91;5092975;28;19924;-64
2021/04/06 18:10:53;;;;;;;;;;;18.90;99.90;;;18.31;77.23;100280.91;5093067;28;20014;-64
2021/04/06 18:13:22;;;;;;;;;;;18.80;99.90;;;18.18;78.91;100280.19;5092322;28;19936;-64
2021/04/06 18:15:50;;;;;;;;;;;18.70;99.90;;;18.13;80.46;100283.19;5092930;28;19935;-64
2021/04/06 18:18:20;;;;;;;;;;;18.70;99.90;;;18.08;80.65;100283.47;5092727;28;19924;-64
2021/04/06 18:20:48;;;;;;;;;;;18.60;99.90;;;17.95;82.06;100287.44;5092962;28;19984;-64
2021/04/06 18:23:15;;;;;;;;;;;18.50;99.90;;;17.83;83.22;100279.28;5092254;28;19981;-63
2021/04/06 18:25:43;;;;;;;;;;;18.40;99.90;;;17.75;84.30;100281.03;5092456;28;19928;-64
2021/04/06 18:28:10;;;;;;;;;;;18.30;99.90;;;17.66;85.78;100285.88;5092507;28;19950;-64
2021/04/06 18:30:38;;;;;;;;;;;18.20;99.90;;;17.58;86.79;100275.09;5092814;28;19947;-64
2021/04/06 18:33:10;;;;;;;;;;;18.10;99.90;;;17.47;87.21;100288.47;5092269;28;19932;-63
2021/04/06 18:35:39;;;;;;;;;;;18.00;99.90;;;17.36;88.49;100279.16;5092336;28;19925;-64
2021/04/06 18:38:06;;;;;;;;;;;17.90;99.90;;;17.29;88.70;100277.03;5092412;28;19958;-64
2021/04/06 18:40:33;;;;;;;;;;;17.80;99.90;;;17.26;89.45;100274.19;5092666;28;19924;-64
2021/04/06 18:43:01;;;;;;;;;;;17.80;99.90;;;17.21;90.49;100275.22;5092033;28;19924;-63
2021/04/06 18:45:28;;;;;;;;;;;17.70;99.90;;;17.19;90.92;100279.44;5092198;28;19924;-64
2021/04/06 18:47:56;;;;;;;;;;;17.70;99.90;;;17.13;90.61;100278.09;5092266;28;19950;-63
2021/04/06 18:50:26;;;;;;;;;;;17.60;99.90;;;17.10;91.11;100284.25;5092376;28;19924;-64
2021/04/06 18:52:54;;;;;;;;;;;17.60;99.90;;;16.99;91.76;100288.63;5095830;28;19974;-63
2021/04/06 18:55:23;;;;;;;;;;;17.50;99.90;;;16.88;91.78;100282.81;5096516;28;20348;-63
2021/04/06 18:57:50;;;;;;;;;;;17.40;99.90;;;16.78;92.23;100284.09;5096582;28;20365;-64
2021/04/06 19:00:21;;;;;;;;;;;17.30;99.90;;;16.70;93.96;100281.50;5096552;28;19931;-64
2021/04/06 19:02:49;;;;;;;;;;;17.20;99.90;;;16.58;94.69;100287.75;5096207;28;20305;-64
2021/04/06 19:05:18;;;;;;;;;;;17.10;99.90;;;16.49;96.58;100283.53;5096020;28;19962;-64
2021/04/06 19:07:49;;;;;;;;;;;17.00;99.90;;;16.39;97.83;100293.75;5096266;28;19931;-64
2021/04/06 19:10:18;;;;;;;;;;;16.90;99.90;;;16.34;98.63;100287.75;5096376;28;19928;-64
2021/04/06 19:12:46;;;;;;;;;;;16.90;99.90;;;16.30;98.69;100290.34;5095885;28;19924;-64
2021/04/06 19:15:16;;;;;;;;;;;16.80;99.90;;;16.28;99.28;100291.81;5095905;28;19977;-63
2021/04/06 19:17:44;;;;;;;;;;;16.80;99.90;;;16.27;100.00;100291.03;5096135;28;19928;-64
2021/04/06 19:20:12;;;;;;;;;;;16.80;99.90;;;16.29;100.00;100285.25;5095919;28;19924;-64
2021/04/06 19:22:40;;;;;;;;;;;16.80;99.90;;;16.22;99.61;100285.81;5095879;28;19931;-64
2021/04/06 19:25:11;;;;;;;;;;;16.80;99.90;;;16.18;99.95;100278.63;5095658;28;19924;-64
2021/04/06 19:27:39;;;;;;;;;;;16.70;99.90;;;16.15;100.00;100287.50;5096013;28;19924;-64
2021/04/06 19:30:09;;;;;;;;;;;16.60;99.90;;;16.12;100.00;100288.16;5095786;28;19932;-63
2021/04/06 19:32:36;;;;;;;;;;;16.60;99.90;;;16.05;100.00;100291.44;5095655;28;19935;-64
2021/04/06 19:35:05;;;;;;;;;;;16.50;99.90;;;15.96;100.00;100300.88;5095290;28;19924;-64
2021/04/06 19:37:32;;;;;;;;;;;16.40;99.90;;;15.91;100.00;100301.88;5095911;28;20340;-64
2021/04/06 19:40:00;;;;;;;;;;;16.40;99.90;;;15.92;100.00;100299.97;5095783;28;19928;-64
2021/04/06 19:42:29;;;;;;;;;;;16.40;99.90;;;15.81;100.00;100305.84;5095316;28;19924;-64
2021/04/06 19:44:56;;;;;;;;;;;16.20;99.90;;;15.78;100.00;100313.88;5095107;28;20034;-64
2021/04/06 19:47:23;;;;;;;;;;;16.20;99.90;;;15.74;100.00;100319.25;5095729;28;20026;-64
2021/04/06 19:49:52;;;;;;;;;;;16.20;99.90;;;15.72;100.00;100328.84;5095441;28;19924;-63
2021/04/06 19:52:20;;;;;;;;;;;16.10;99.90;;;15.64;100.00;100327.03;5095346;28;20034;-63
2021/04/06 19:54:47;;;;;;;;;;;16.00;99.90;;;15.52;100.00;100326.97;5095214;28;19924;-63
2021/04/06 19:57:15;;;;;;;;;;;15.90;99.90;;;15.48;100.00;100328.75;5095587;28;19935;-63
2021/04/06 19:59:43;;;;;;;;;;;15.80;99.90;;;15.47;100.00;100332.59;5095287;28;19982;-63
2021/04/06 20:02:11;;;;;;;;;;;15.90;99.90;;;15.39;100.00;100333.47;5094498;28;19928;-63
2021/04/06 20:04:39;;;;;;;;;;;15.80;99.90;;;15.36;100.00;100339.56;5094143;28;19931;-64
2021/04/06 20:07:06;;;;;;;;;;;15.80;99.90;;;15.36;100.00;100343.09;5095228;28;20003;-64
2021/04/06 20:09:33;;;;;;;;;;;15.80;99.90;;;15.36;100.00;100342.28;5095232;28;19927;-64
2021/04/06 20:12:01;;;;;;;;;;;15.80;99.90;;;15.37;100.00;100344.69;5094917;28;19928;-63
2021/04/06 20:14:29;;;;;;;;;;;15.80;99.90;;;15.37;100.00;100355.59;5094728;28;19978;-64
2021/04/06 20:16:58;;;;;;;;;;;15.80;99.90;;;15.37;100.00;100347.44;5095216;28;19931;-64
2021/04/06 20:19:25;;;;;;;;;;;15.80;99.90;;;15.39;100.00;100350.59;5095136;28;20073;-64
2021/04/06 20:21:53;;;;;;;;;;;15.80;99.90;;;15.42;100.00;100360.03;5094654;28;19924;-64
2021/04/06 20:24:22;;;;;;;;;;;15.80;99.90;;;15.41;100.00;100359.22;5094315;28;19936;-64
2021/04/06 20:26:50;;;;;;;;;;;15.80;99.90;;;15.46;100.00;100356.31;5095007;28;20019;-64
2021/04/06 20:29:19;;;;;;;;;;;15.90;99.90;;;15.48;100.00;100356.81;5094960;28;19924;-63
2021/04/06 20:31:47;;;;;;;;;;;15.90;99.90;;;15.49;100.00;100360.34;5094527;28;19924;-64
2021/04/06 20:34:16;;;;;;;;;;;15.90;99.90;;;15.43;100.00;100354.28;5094116;28;19924;-64
2021/04/06 20:36:44;;;;;;;;;;;15.90;99.90;;;15.32;100.00;100369.41;5094569;28;19924;-64
2021/04/06 20:39:12;;;;;;;;;;;15.70;99.90;;;15.28;100.00;100368.50;5094629;28;19989;-64
2021/04/06 20:41:39;;;;;;;;;;;15.70;99.90;;;15.25;100.00;100372.69;5094227;28;20003;-63
2021/04/06 20:44:08;;;;;;;;;;;15.60;99.90;;;15.22;100.00;100375.25;5093986;28;19939;-64
2021/04/06 20:46:35;;;;;;;;;;;15.60;99.90;;;15.17;100.00;100372.72;5094567;28;19974;-64
2021/04/06 20:49:06;;;;;;;;;;;15.60;99.90;;;15.13;100.00;100385.41;5094327;28;19973;-63
2021/04/06 20:51:34;;;;;;;;;;;15.50;99.90;;;15.03;100.00;100378.44;5093812;28;19931;-64
2021/04/06 20:54:01;;;;;;;;;;;15.50;99.90;;;14.93;100.00;100394.31;5093797;28;19924;-63
2021/04/06 20:56:29;;;;;;;;;;;15.30;99.90;;;14.76;100.00;100397.94;5094309;28;19927;-63
2021/04/06 20:58:58;;;;;;;;;;;15.10;99.90;;;14.68;100.00;100401.50;5094338;28;20037;-64
2021/04/06 21:01:26;;;;;;;;;;;15.10;99.90;;;14.59;100.00;100406.19;5093955;28;20044;-64
2021/04/06 21:03:54;;;;;;;;;;;15.00;99.90;;;14.62;100.00;100405.53;5093533;28;19931;-64
2021/04/06 21:06:21;;;;;;;;;;;15.10;99.90;;;14.66;100.00;100401.03;5093819;28;19942;-63
2021/04/06 21:08:51;;;;;;;;;;;15.10;99.90;;;14.67;100.00;100397.19;5094289;28;19977;-64
2021/04/06 21:11:19;;;;;;;;;;;15.20;99.90;;;14.80;100.00;100398.91;5094055;28;19935;-64
2021/04/06 21:13:46;;;;;;;;;;;15.30;99.90;;;14.85;100.00;100398.69;5092731;28;19977;-64
2021/04/06 21:16:14;;;;;;;;;;;15.30;99.90;;;14.90;100.00;100390.34;5093318;28;19924;-64
2021/04/06 21:18:41;;;;;;;;;;;15.30;99.90;;;14.86;100.00;100389.41;5093992;28;20301;-63
2021/04/06 21:21:09;;;;;;;;;;;15.30;99.90;;;14.87;100.00;100395.63;5093660;28;19928;-64
2021/04/06 21:23:36;;;;;;;;;;;15.30;99.90;;;14.82;100.00;100395.84;5093123;28;19924;-64
2021/04/06 21:26:04;;;;;;;;;;;15.30;99.90;;;14.79;100.00;100400.00;5092900;28;19985;-63
2021/04/06 21:28:31;;;;;;;;;;;15.20;99.90;;;14.67;100.00;100391.75;5093827;28;19978;-63
2021/04/06 21:30:59;;;;;;;;;;;15.10;99.90;;;14.60;100.00;100405.06;5093561;28;19928;-64
2021/04/06 21:33:26;;;;;;;;;;;15.10;99.90;;;14.52;100.00;100401.25;5092269;28;20309;-63
2021/04/06 21:35:53;;;;;;;;;;;15.00;99.90;;;14.38;100.00;100397.16;5092849;28;20355;-64
2021/04/06 21:38:21;;;;;;;;;;;14.80;99.90;;;14.28;100.00;100397.47;5093420;28;19924;-63
2021/04/06 21:40:48;;;;;;;;;;;14.70;99.90;;;14.32;100.00;100388.31;5093732;28;20331;-64
2021/04/06 21:43:16;;;;;;;;;;;14.70;99.90;;;14.11;100.00;100399.09;5092762;28;19928;-64
2021/04/06 21:45:44;;;;;;;;;;;14.70;99.90;;;13.99;100.00;100393.50;5092369;28;19925;-63
2021/04/06 21:48:11;;;;;;;;;;;14.50;99.90;;;14.02;100.00;100392.06;5093316;28;19924;-63
2021/04/06 21:50:38;;;;;;;;;;;14.40;99.90;;;13.96;100.00;100394.16;5093415;28;19982;-63
2021/04/06 21:53:05;;;;;;;;;;;14.40;99.90;;;13.78;100.00;100389.88;5092450;28;20267;-64
2021/04/06 21:55:33;;;;;;;;;;;14.20;99.90;;;13.77;100.00;100390.97;5092492;28;19928;-64
2021/04/06 21:58:00;;;;;;;;;;;14.20;99.90;;;13.75;100.00;100395.94;5093142;28;19924;-64
2021/04/06 22:00:28;;;;;;;;;;;14.10;99.90;;;13.63;100.00;100390.34;5093216;28;19931;-64
2021/04/06 22:02:55;;;;;;;;;;;14.00;99.90;;;13.50;100.00;100389.38;5092768;28;19966;-64
2021/04/06 22:05:23;;;;;;;;;;;13.90;99.90;;;13.35;100.00;100381.72;5092166;28;19924;-64
2021/04/06 22:07:51;;;;;;;;;;;13.70;99.90;;;13.32;100.00;100386.97;5092888;28;19924;-64
2021/04/06 22:10:18;;;;;;;;;;;13.70;99.90;;;13.28;100.00;100386.84;5093081;28;19924;-64
2021/04/06 22:12:46;;;;;;;;;;;13.60;99.90;;;13.27;100.00;100384.44;5092427;28;19935;-63
2021/04/06 22:15:17;;;;;;;;;;;13.60;99.90;;;13.18;100.00;100380.91;5092164;28;19924;-64
2021/04/06 22:17:45;;;;;;;;;;;;;;;13.09;100.00;100376.28;5092626;28;19928;-64
2021/04/06 22:20:14;;;;;;;;;;;13.40;99.90;;;13.05;100.00;100383.41;5093016;28;19924;-63
2021/04/06 22:22:43;;;;;;;;;;;13.40;99.90;;;12.98;100.00;100374.91;5092256;28;19928;-64
2021/04/06 22:25:13;;;;;;;;;;;13.30;99.90;;;12.92;100.00;100381.63;5091702;28;19924;-64
2021/04/06 22:27:41;;;;;;;;;;;13.20;99.90;;;12.86;100.00;100377.44;5091915;28;19935;-64
2021/04/06 22:30:11;;;;;;;;;;;13.20;99.90;;;12.87;100.00;100379.06;5092826;28;19946;-64
2021/04/06 22:32:38;;;;;;;;;;;13.20;99.90;;;12.86;100.00;100372.03;5092243;28;19931;-63
2021/04/06 22:35:11;;;;;;;;;;;13.20;99.90;;;12.91;100.00;100376.50;5091785;28;20322;-64
2021/04/06 22:37:40;;;;;;;;;;;13.20;99.90;;;12.82;100.00;100372.97;5092142;28;19924;-64
2021/04/06 22:40:09;;;;;;;;;;;13.20;99.90;;;12.82;100.00;100371.06;5092700;28;20027;-63
2021/04/06 22:42:36;;;;;;;;;;;13.20;99.90;;;12.74;100.00;100374.53;5092265;28;19924;-64
2021/04/06 22:45:06;;;;;;;;;;;13.10;99.90;;;12.65;100.00;100370.19;5091682;28;19924;-64
2021/04/06 22:47:33;;;;;;;;;;;13.00;99.90;;;12.54;100.00;100364.28;5092211;28;19924;-64
2021/04/06 22:50:01;;;;;;;;;;;12.90;99.90;;;12.45;100.00;100372.38;5092431;28;19928;-64
2021/04/06 22:52:29;;;;;;;;;;;12.80;99.90;;;12.41;100.00;100379.53;5092154;28;20297;-63
2021/04/06 22:54:56;;;;;;;;;;;12.80;99.90;;;12.37;100.00;100373.13;5091742;28;19969;-64
2021/04/06 22:57:28;;;;;;;;;;;12.80;99.90;;;12.42;100.00;100373.00;5092199;28;19935;-64
2021/04/06 22:59:56;;;;;;;;;;;12.80;99.90;;;12.53;100.00;100377.03;5092518;28;20378;-64
2021/04/06 23:02:23;;;;;;;;;;;12.80;99.90;;;12.45;100.00;100374.28;5091868;28;19924;-63
2021/04/06 23:04:50;;;;;;;;;;;12.80;99.90;;;12.43;100.00;100379.22;5091654;28;19978;-63
2021/04/06 23:07:18;;;;;;;;;;;12.80;99.90;;;12.42;100.00;100378.44;5092137;28;19924;-64
2021/04/06 23:09:46;;;;;;;;;;;12.80;99.90;;;12.47;100.00;100380.19;5092310;28;19924;-64
2021/04/06 23:12:13;;;;;;;;;;;12.80;99.90;;;12.60;100.00;100373.88;5092008;28;19924;-63
2021/04/06 23:14:42;;;;;;;;;;;12.90;99.90;;;12.52;100.00;100371.94;5091689;28;19924;-63
2021/04/06 23:17:10;;;;;;;;;;;12.90;99.90;;;12.40;100.00;100369.00;5091885;28;20289;-64
2021/04/06 23:19:37;;;;;;;;;;;12.80;99.90;;;12.42;100.00;100364.88;5092308;28;19924;-63
2021/04/06 23:22:04;;;;;;;;;;;12.80;99.90;;;12.49;100.00;100361.72;5091934;28;20301;-64
2021/04/06 23:24:32;;;;;;;;;;;12.90;99.90;;;12.39;100.00;100370.09;5091378;28;19962;-63
2021/04/06 23:27:00;;;;;;;;;;;;;;;12.09;100.00;100371.72;5092290;28;19931;-63
2021/04/06 23:29:28;;;;;;;;;;;12.60;99.90;;;11.98;100.00;100364.94;5092359;28;19931;-64
2021/04/06 23:31:55;;;;;;;;;;;12.50;99.90;;;12.00;100.00;100365.44;5091709;28;19928;-63
2021/04/06 23:34:22;;;;;;;;;;;12.60;99.90;;;12.03;100.00;100364.81;5091248;28;19928;-64
2021/04/06 23:36:49;;;;;;;;;;;12.60;99.90;;;12.07;100.00;100356.88;5091835;28;19928;-63
2021/04/06 23:39:16;;;;;;;;;;;12.60;99.90;;;12.07;100.00;100352.22;5096015;28;19924;-63
2021/04/06 23:41:44;;;;;;;;;;;12.60;99.90;;;12.04;100.00;100356.38;5095546;28;19928;-64
2021/04/06 23:44:12;;;;;;;;;;;12.60;99.90;;;12.09;100.00;100351.94;5094966;28;19924;-63
2021/04/06 23:46:39;;;;;;;;;;;12.60;99.90;;;12.14;100.00;100354.50;5095218;28;20332;-64
2021/04/06 23:49:06;;;;;;;;;;;12.60;99.90;;;12.12;100.00;100357.53;5095638;28;19928;-63
2021/04/06 23:51:34;;;;;;;;;;;12.60;99.90;;;12.02;100.00;100345.06;5095242;28;19924;-64
2021/04/06 23:54:01;;;;;;;;;;;12.40;99.90;;;11.98;100.00;100346.78;5095030;28;19969;-64
2021/04/06 23:56:28;;;;;;;;;;;12.40;99.90;;;11.96;100.00;100346.28;5095054;28;19920;-63
2021/04/06 23:58:55;;;;;;;;;;;12.30;99.90;;;11.92;100.00;100344.50;5095631;28;19927;-64
